createdAt,value
2016-12-08T00:00:55.230Z,0
2016-12-08T00:02:06.210Z,0
2016-12-08T00:03:17.224Z,0
2016-12-08T00:04:28.213Z,0
2016-12-08T00:05:39.203Z,0
2016-12-08T00:06:50.260Z,0
2016-12-08T00:08:01.249Z,0
2016-12-08T00:09:12.243Z,0
2016-12-08T00:10:23.231Z,0
2016-12-08T00:11:34.218Z,0
2016-12-08T00:12:45.259Z,0
2016-12-08T00:13:56.243Z,0
2016-12-08T00:15:07.241Z,0
2016-12-08T00:16:18.429Z,0
2016-12-08T00:17:29.416Z,0
2016-12-08T00:18:40.458Z,0
2016-12-08T00:19:51.436Z,0
2016-12-08T00:21:02.423Z,0
2016-12-08T00:22:13.410Z,0
2016-12-08T00:23:24.595Z,0
2016-12-08T00:24:35.631Z,0
2016-12-08T00:25:46.814Z,0
2016-12-08T00:26:58.004Z,0
2016-12-08T00:28:08.997Z,0
2016-12-08T00:29:19.976Z,0
2016-12-08T00:30:31.008Z,0
2016-12-08T00:31:41.993Z,0
2016-12-08T00:32:52.982Z,0
2016-12-08T00:34:03.969Z,0
2016-12-08T00:35:14.953Z,0
2016-12-08T00:36:26.198Z,0
2016-12-08T00:37:37.381Z,0
2016-12-08T00:38:48.569Z,0
2016-12-08T00:39:59.558Z,0
2016-12-08T00:41:10.740Z,0
2016-12-08T00:42:21.775Z,0
2016-12-08T00:43:32.761Z,0
2016-12-08T00:44:43.949Z,0
2016-12-08T00:45:54.942Z,0
2016-12-08T00:47:05.934Z,0
2016-12-08T00:48:16.975Z,0
2016-12-08T00:49:27.951Z,0
2016-12-08T00:50:38.932Z,0
2016-12-08T00:51:49.914Z,0
2016-12-08T00:53:00.900Z,0
2016-12-08T00:54:12.336Z,0
2016-12-08T00:55:23.319Z,0
2016-12-08T00:56:34.313Z,0
2016-12-08T00:57:45.507Z,0
2016-12-08T00:58:56.491Z,0
2016-12-08T01:00:07.530Z,0
2016-12-08T01:01:18.516Z,0
2016-12-08T01:02:29.506Z,0
2016-12-08T01:03:40.487Z,0
2016-12-08T01:04:51.478Z,0
2016-12-08T01:06:02.519Z,0
2016-12-08T01:07:13.709Z,0
2016-12-08T01:08:24.901Z,0
2016-12-08T01:09:36.285Z,0
2016-12-08T01:10:47.272Z,0
2016-12-08T01:11:58.312Z,0
2016-12-08T01:13:09.294Z,0
2016-12-08T01:14:20.291Z,0
2016-12-08T01:15:31.276Z,0
2016-12-08T01:16:42.258Z,0
2016-12-08T01:17:53.495Z,0
2016-12-08T01:19:04.474Z,0
2016-12-08T01:20:15.455Z,0
2016-12-08T01:21:26.431Z,0
2016-12-08T01:22:37.416Z,0
2016-12-08T01:23:48.650Z,0
2016-12-08T01:24:59.640Z,0
2016-12-08T01:26:10.836Z,0
2016-12-08T01:27:21.824Z,0
2016-12-08T01:28:32.822Z,0
2016-12-08T01:29:43.869Z,0
2016-12-08T01:30:54.895Z,0
2016-12-08T01:32:05.879Z,0
2016-12-08T01:33:16.868Z,0
2016-12-08T01:34:27.852Z,0
2016-12-08T01:35:38.888Z,0
2016-12-08T01:36:49.877Z,0
2016-12-08T01:38:00.869Z,0
2016-12-08T01:39:11.854Z,0
2016-12-08T01:40:22.877Z,0
2016-12-08T01:41:33.924Z,0
2016-12-08T01:42:44.915Z,0
2016-12-08T01:43:55.899Z,0
2016-12-08T01:45:07.090Z,0
2016-12-08T01:46:18.081Z,0
2016-12-08T01:47:29.127Z,0
2016-12-08T01:48:40.326Z,0
2016-12-08T01:49:51.509Z,0
2016-12-08T01:51:02.495Z,0
2016-12-08T01:52:13.494Z,0
2016-12-08T01:53:24.537Z,0
2016-12-08T01:54:35.526Z,0
2016-12-08T01:55:46.517Z,0
2016-12-08T01:56:57.508Z,0
2016-12-08T01:58:08.493Z,0
2016-12-08T01:59:19.524Z,0
2016-12-08T02:00:30.514Z,0
2016-12-08T02:01:41.898Z,0
2016-12-08T02:02:52.882Z,0
2016-12-08T02:04:03.870Z,0
2016-12-08T02:05:14.909Z,0
2016-12-08T02:06:25.893Z,0
2016-12-08T02:07:36.880Z,0
2016-12-08T02:08:47.863Z,0
2016-12-08T02:09:58.856Z,0
2016-12-08T02:11:09.926Z,0
2016-12-08T02:12:20.913Z,0
2016-12-08T02:13:31.910Z,0
2016-12-08T02:14:42.905Z,0
2016-12-08T02:15:53.922Z,0
2016-12-08T02:17:04.958Z,0
2016-12-08T02:18:15.988Z,0
2016-12-08T02:19:26.973Z,0
2016-12-08T02:20:37.957Z,0
2016-12-08T02:21:48.936Z,0
2016-12-08T02:23:00.185Z,0
2016-12-08T02:24:11.364Z,0
2016-12-08T02:25:22.345Z,0
2016-12-08T02:26:33.325Z,0
2016-12-08T02:27:44.309Z,0
2016-12-08T02:28:55.381Z,0
2016-12-08T02:30:06.573Z,0
2016-12-08T02:31:17.558Z,0
2016-12-08T02:32:28.550Z,0
2016-12-08T02:33:39.738Z,0
2016-12-08T02:34:50.992Z,0
2016-12-08T02:36:02.177Z,0
2016-12-08T02:37:13.168Z,0
2016-12-08T02:38:24.155Z,0
2016-12-08T02:39:35.136Z,0
2016-12-08T02:40:46.380Z,0
2016-12-08T02:41:57.366Z,0
2016-12-08T02:43:08.349Z,0
2016-12-08T02:44:19.336Z,0
2016-12-08T02:45:30.530Z,0
2016-12-08T02:46:41.566Z,0
2016-12-08T02:47:52.555Z,0
2016-12-08T02:49:03.548Z,0
2016-12-08T02:50:14.542Z,0
2016-12-08T02:51:25.526Z,0
2016-12-08T02:52:36.566Z,0
2016-12-08T02:53:47.553Z,0
2016-12-08T02:54:58.546Z,0
2016-12-08T02:56:09.530Z,0
2016-12-08T02:57:20.525Z,0
2016-12-08T02:58:31.785Z,0
2016-12-08T02:59:42.786Z,0
2016-12-08T03:00:53.787Z,0
2016-12-08T03:02:04.982Z,0
2016-12-08T03:03:15.975Z,0
2016-12-08T03:04:27.211Z,0
2016-12-08T03:05:38.398Z,0
2016-12-08T03:06:49.388Z,0
2016-12-08T03:08:00.384Z,0
2016-12-08T03:09:11.383Z,0
2016-12-08T03:10:22.635Z,0
2016-12-08T03:11:33.628Z,0
2016-12-08T03:12:44.612Z,0
2016-12-08T03:13:55.596Z,0
2016-12-08T03:15:06.585Z,0
2016-12-08T03:16:17.831Z,0
2016-12-08T03:17:28.819Z,0
2016-12-08T03:18:40.010Z,0
2016-12-08T03:19:51.199Z,0
2016-12-08T03:21:02.197Z,0
2016-12-08T03:22:13.234Z,0
2016-12-08T03:23:24.456Z,0
2016-12-08T03:24:35.442Z,0
2016-12-08T03:25:46.434Z,0
2016-12-08T03:26:57.424Z,0
2016-12-08T03:28:08.463Z,0
2016-12-08T03:29:19.448Z,0
2016-12-08T03:30:30.434Z,0
2016-12-08T03:31:41.817Z,0
2016-12-08T03:32:52.808Z,0
2016-12-08T03:34:03.845Z,0
2016-12-08T03:35:14.839Z,0
2016-12-08T03:36:26.023Z,0
2016-12-08T03:37:37.245Z,0
2016-12-08T03:38:48.425Z,0
2016-12-08T03:39:59.660Z,0
2016-12-08T03:41:10.846Z,0
2016-12-08T03:42:21.847Z,0
2016-12-08T03:43:32.828Z,0
2016-12-08T03:44:43.825Z,0
2016-12-08T03:45:54.881Z,0
2016-12-08T03:47:05.865Z,0
2016-12-08T03:48:16.846Z,0
2016-12-08T03:49:27.838Z,0
2016-12-08T03:50:39.022Z,0
2016-12-08T03:51:50.054Z,0
2016-12-08T03:53:01.047Z,0
2016-12-08T03:54:12.036Z,0
2016-12-08T03:55:23.227Z,0
2016-12-08T03:56:34.223Z,0
2016-12-08T03:57:45.464Z,0
2016-12-08T03:58:56.455Z,0
2016-12-08T04:00:07.440Z,0
2016-12-08T04:01:18.423Z,0
2016-12-08T04:02:29.410Z,0
2016-12-08T04:03:40.447Z,0
2016-12-08T04:04:51.433Z,0
2016-12-08T04:06:02.821Z,0
2016-12-08T04:07:13.812Z,0
2016-12-08T04:08:24.800Z,0
2016-12-08T04:09:35.837Z,0
2016-12-08T04:10:47.022Z,0
2016-12-08T04:11:58.005Z,0
2016-12-08T04:13:09.026Z,0
2016-12-08T04:14:20.225Z,0
2016-12-08T04:15:31.273Z,0
2016-12-08T04:16:42.456Z,0
2016-12-08T04:17:53.450Z,0
2016-12-08T04:19:04.438Z,0
2016-12-08T04:20:15.437Z,0
2016-12-08T04:21:26.683Z,0
2016-12-08T04:22:37.681Z,0
2016-12-08T04:23:48.674Z,0
2016-12-08T04:24:59.658Z,0
2016-12-08T04:26:10.849Z,0
2016-12-08T04:27:22.092Z,0
2016-12-08T04:28:33.075Z,0
2016-12-08T04:29:44.263Z,0
2016-12-08T04:30:55.244Z,0
2016-12-08T04:32:06.232Z,0
2016-12-08T04:33:17.270Z,0
2016-12-08T04:34:28.251Z,0
2016-12-08T04:35:39.230Z,0
2016-12-08T04:36:50.224Z,0
2016-12-08T04:38:01.405Z,0
2016-12-08T04:39:12.445Z,0
2016-12-08T04:40:23.423Z,0
2016-12-08T04:41:34.411Z,0
2016-12-08T04:42:45.392Z,0
2016-12-08T04:43:56.383Z,0
2016-12-08T04:45:07.418Z,0
2016-12-08T04:46:18.609Z,0
2016-12-08T04:47:29.594Z,0
2016-12-08T04:48:40.582Z,0
2016-12-08T04:49:51.567Z,0
2016-12-08T04:51:03.013Z,0
2016-12-08T04:52:14.002Z,0
2016-12-08T04:53:25.013Z,0
2016-12-08T04:54:36.006Z,0
2016-12-08T04:55:47.186Z,0
2016-12-08T04:56:58.219Z,0
2016-12-08T04:58:09.197Z,0
2016-12-08T04:59:20.179Z,0
2016-12-08T05:00:31.164Z,0
2016-12-08T05:01:42.152Z,0
2016-12-08T05:02:53.181Z,0
2016-12-08T05:04:04.168Z,0
2016-12-08T05:05:15.156Z,0
2016-12-08T05:06:26.143Z,0
2016-12-08T05:07:37.124Z,0
2016-12-08T05:08:48.164Z,0
2016-12-08T05:09:59.155Z,0
2016-12-08T05:11:10.344Z,0
2016-12-08T05:12:21.334Z,0
2016-12-08T05:13:32.322Z,0
2016-12-08T05:14:43.358Z,0
2016-12-08T05:15:54.340Z,0
2016-12-08T05:17:05.331Z,0
2016-12-08T05:18:16.316Z,0
2016-12-08T05:19:27.314Z,0
2016-12-08T05:20:38.363Z,0
2016-12-08T05:21:49.352Z,0
2016-12-08T05:23:00.339Z,0
2016-12-08T05:24:11.318Z,0
2016-12-08T05:25:22.309Z,0
2016-12-08T05:26:33.343Z,0
2016-12-08T05:27:44.355Z,0
2016-12-08T05:28:55.336Z,0
2016-12-08T05:30:06.327Z,0
2016-12-08T05:31:17.341Z,0
2016-12-08T05:32:28.381Z,0
2016-12-08T05:33:39.571Z,0
2016-12-08T05:34:50.556Z,0
2016-12-08T05:36:01.548Z,0
2016-12-08T05:37:12.543Z,0
2016-12-08T05:38:23.617Z,0
2016-12-08T05:39:34.598Z,0
2016-12-08T05:40:45.592Z,0
2016-12-08T05:41:56.575Z,0
2016-12-08T05:43:07.566Z,0
2016-12-08T05:44:18.599Z,0
2016-12-08T05:45:29.787Z,0
2016-12-08T05:46:40.778Z,0
2016-12-08T05:47:51.771Z,0
2016-12-08T05:49:02.754Z,0
2016-12-08T05:50:13.792Z,0
2016-12-08T05:51:24.982Z,0
2016-12-08T05:52:36.174Z,0
2016-12-08T05:53:47.163Z,0
2016-12-08T05:54:58.345Z,0
2016-12-08T05:56:09.387Z,0
2016-12-08T05:57:20.371Z,0
2016-12-08T05:58:31.354Z,0
2016-12-08T05:59:42.343Z,0
2016-12-08T06:00:53.349Z,0
2016-12-08T06:02:04.381Z,0
2016-12-08T06:03:15.370Z,0
2016-12-08T06:04:26.353Z,0
2016-12-08T06:05:37.543Z,0
2016-12-08T06:06:48.533Z,0
2016-12-08T06:07:59.765Z,0
2016-12-08T06:09:10.754Z,0
2016-12-08T06:10:21.740Z,0
2016-12-08T06:11:32.756Z,0
2016-12-08T06:12:43.740Z,0
2016-12-08T06:13:54.979Z,0
2016-12-08T06:15:05.968Z,0
2016-12-08T06:16:16.956Z,0
2016-12-08T06:17:27.942Z,0
2016-12-08T06:18:38.933Z,0
2016-12-08T06:19:49.971Z,0
2016-12-08T06:21:00.956Z,0
2016-12-08T06:22:11.947Z,0
2016-12-08T06:23:22.928Z,0
2016-12-08T06:24:33.921Z,0
2016-12-08T06:25:45.151Z,0
2016-12-08T06:26:56.131Z,0
2016-12-08T06:28:07.114Z,0
2016-12-08T06:29:18.103Z,0
2016-12-08T06:30:29.097Z,0
2016-12-08T06:31:40.337Z,0
2016-12-08T06:32:51.523Z,0
2016-12-08T06:34:02.505Z,0
2016-12-08T06:35:13.489Z,0
2016-12-08T06:36:24.465Z,0
2016-12-08T06:37:35.712Z,0
2016-12-08T06:38:46.696Z,0
2016-12-08T06:39:57.684Z,0
2016-12-08T06:41:08.875Z,0
2016-12-08T06:42:19.887Z,0
2016-12-08T06:43:31.123Z,0
2016-12-08T06:44:42.107Z,0
2016-12-08T06:45:53.087Z,4
2016-12-08T06:47:04.275Z,4
2016-12-08T06:48:15.262Z,0
2016-12-08T06:49:26.295Z,4
2016-12-08T06:50:37.283Z,4
2016-12-08T06:51:48.269Z,4
2016-12-08T06:52:59.460Z,8
2016-12-08T06:54:10.448Z,8
2016-12-08T06:55:21.491Z,8
2016-12-08T06:56:32.478Z,12
2016-12-08T06:57:43.673Z,12
2016-12-08T06:58:54.668Z,16
2016-12-08T07:00:05.649Z,24
2016-12-08T07:01:16.703Z,28
2016-12-08T07:02:27.717Z,32
2016-12-08T07:03:38.899Z,36
2016-12-08T07:04:49.886Z,44
2016-12-08T07:06:00.869Z,56
2016-12-08T07:07:11.894Z,64
2016-12-08T07:08:22.874Z,76
2016-12-08T07:09:33.866Z,88
2016-12-08T07:10:44.857Z,100
2016-12-08T07:11:56.041Z,116
2016-12-08T07:13:07.294Z,124
2016-12-08T07:14:18.479Z,140
2016-12-08T07:15:29.474Z,152
2016-12-08T07:16:40.660Z,168
2016-12-08T07:17:51.648Z,184
2016-12-08T07:19:02.682Z,200
2016-12-08T07:20:13.877Z,216
2016-12-08T07:21:25.068Z,232
2016-12-08T07:22:36.049Z,252
2016-12-08T07:23:47.037Z,280
2016-12-08T07:24:58.073Z,308
2016-12-08T07:26:09.261Z,344
2016-12-08T07:27:20.251Z,392
2016-12-08T07:28:31.230Z,448
2016-12-08T07:29:42.221Z,512
2016-12-08T07:30:53.255Z,580
2016-12-08T07:32:04.246Z,652
2016-12-08T07:33:15.434Z,732
2016-12-08T07:34:26.622Z,816
2016-12-08T07:35:37.613Z,900
2016-12-08T07:36:48.648Z,988
2016-12-08T07:37:59.629Z,1072
2016-12-08T07:39:10.611Z,1164
2016-12-08T07:40:21.595Z,1244
2016-12-08T07:41:32.580Z,1336
2016-12-08T07:42:43.616Z,1432
2016-12-08T07:43:54.608Z,1532
2016-12-08T07:45:05.593Z,1644
2016-12-08T07:46:16.589Z,1764
2016-12-08T07:47:27.778Z,1900
2016-12-08T07:48:38.824Z,2048
2016-12-08T07:49:50.012Z,2192
2016-12-08T07:51:00.996Z,2344
2016-12-08T07:52:11.981Z,2500
2016-12-08T07:53:22.962Z,2644
2016-12-08T07:54:33.997Z,2788
2016-12-08T07:55:44.972Z,2940
2016-12-08T07:56:55.964Z,3084
2016-12-08T07:58:07.186Z,3228
2016-12-08T07:59:18.167Z,3364
2016-12-08T08:00:29.210Z,3512
2016-12-08T08:01:40.393Z,3668
2016-12-08T08:02:51.576Z,3840
2016-12-08T08:04:02.569Z,4116
2016-12-08T08:05:13.559Z,4512
2016-12-08T08:06:24.795Z,5980
2016-12-08T08:07:35.787Z,7408
2016-12-08T08:08:46.783Z,8124
2016-12-08T08:09:57.763Z,9248
2016-12-08T08:11:08.747Z,8004
2016-12-08T08:12:19.785Z,7696
2016-12-08T08:13:31.168Z,7704
2016-12-08T08:14:42.159Z,10640
2016-12-08T08:15:53.149Z,12800
2016-12-08T08:17:04.138Z,15232
2016-12-08T08:18:15.166Z,19744
2016-12-08T08:19:26.155Z,14496
2016-12-08T08:20:37.136Z,11180
2016-12-08T08:21:48.119Z,9980
2016-12-08T08:22:59.301Z,8116
2016-12-08T08:24:10.361Z,12020
2016-12-08T08:25:21.342Z,5356
2016-12-08T08:26:32.331Z,5492
2016-12-08T08:27:43.322Z,7632
2016-12-08T08:28:54.308Z,6280
2016-12-08T08:30:05.340Z,6584
2016-12-08T08:31:16.350Z,11064
2016-12-08T08:32:27.343Z,12472
2016-12-08T08:33:38.328Z,14048
2016-12-08T08:34:49.321Z,15456
2016-12-08T08:36:00.381Z,7492
2016-12-08T08:37:11.362Z,7624
2016-12-08T08:38:22.354Z,9996
2016-12-08T08:39:33.345Z,11016
2016-12-08T08:40:44.353Z,12224
2016-12-08T08:41:55.405Z,10156
2016-12-08T08:43:06.395Z,13104
2016-12-08T08:44:17.422Z,15264
2016-12-08T08:45:28.614Z,13216
2016-12-08T08:46:39.801Z,13356
2016-12-08T08:47:51.249Z,13760
2016-12-08T08:49:02.240Z,9856
2016-12-08T08:50:13.633Z,9040
2016-12-08T08:51:24.617Z,9664
2016-12-08T08:52:35.620Z,9380
2016-12-08T08:53:46.695Z,10464
2016-12-08T08:54:57.692Z,10696
2016-12-08T08:56:08.685Z,8560
2016-12-08T08:57:19.675Z,12780
2016-12-08T08:58:30.694Z,9732
2016-12-08T08:59:41.728Z,25920
2016-12-08T09:00:52.720Z,24224
2016-12-08T09:02:03.719Z,18688
2016-12-08T09:03:14.701Z,14784
2016-12-08T09:04:25.693Z,10688
2016-12-08T09:05:36.733Z,13872
2016-12-08T09:06:47.744Z,15968
2016-12-08T09:07:58.735Z,13344
2016-12-08T09:09:09.732Z,6452
2016-12-08T09:10:20.927Z,5584
2016-12-08T09:11:31.968Z,5624
2016-12-08T09:12:42.966Z,5920
2016-12-08T09:13:53.957Z,6316
2016-12-08T09:15:04.942Z,7144
2016-12-08T09:16:15.936Z,9932
2016-12-08T09:17:27.184Z,17504
2016-12-08T09:18:38.168Z,7676
2016-12-08T09:19:49.362Z,7536
2016-12-08T09:21:00.363Z,10824
2016-12-08T09:22:11.553Z,19616
2016-12-08T09:23:22.802Z,27840
2016-12-08T09:24:33.796Z,23936
2016-12-08T09:25:44.790Z,21568
2016-12-08T09:26:55.782Z,9972
2016-12-08T09:28:07.176Z,9476
2016-12-08T09:29:18.250Z,7472
2016-12-08T09:30:29.241Z,6696
2016-12-08T09:31:40.476Z,7844
2016-12-08T09:32:51.466Z,8200
2016-12-08T09:34:02.452Z,10864
2016-12-08T09:35:13.694Z,5904
2016-12-08T09:36:24.675Z,5356
2016-12-08T09:37:35.684Z,5288
2016-12-08T09:38:46.877Z,4976
2016-12-08T09:39:57.865Z,5036
2016-12-08T09:41:08.911Z,4740
2016-12-08T09:42:19.944Z,4548
2016-12-08T09:43:30.925Z,4580
2016-12-08T09:44:41.943Z,4712
2016-12-08T09:45:52.932Z,4964
2016-12-08T09:47:03.975Z,5048
2016-12-08T09:48:14.964Z,5364
2016-12-08T09:49:25.942Z,6068
2016-12-08T09:50:37.135Z,5212
2016-12-08T09:51:48.122Z,4628
2016-12-08T09:52:59.164Z,5040
2016-12-08T09:54:10.149Z,4988
2016-12-08T09:55:21.337Z,5444
2016-12-08T09:56:32.324Z,5008
2016-12-08T09:57:43.315Z,5104
2016-12-08T09:58:54.353Z,5168
2016-12-08T10:00:05.540Z,5332
2016-12-08T10:01:16.528Z,6392
2016-12-08T10:02:27.515Z,5788
2016-12-08T10:03:38.526Z,5608
2016-12-08T10:04:49.786Z,5704
2016-12-08T10:06:00.773Z,5804
2016-12-08T10:07:11.763Z,6028
2016-12-08T10:08:22.742Z,6024
2016-12-08T10:09:33.752Z,6000
2016-12-08T10:10:44.781Z,6068
2016-12-08T10:11:55.983Z,6000
2016-12-08T10:13:07.191Z,6052
2016-12-08T10:14:18.184Z,6128
2016-12-08T10:15:29.170Z,6256
2016-12-08T10:16:40.410Z,6408
2016-12-08T10:17:51.443Z,6536
2016-12-08T10:19:02.433Z,6640
2016-12-08T10:20:13.621Z,6708
2016-12-08T10:21:24.804Z,6708
2016-12-08T10:22:35.837Z,6684
2016-12-08T10:23:46.824Z,6644
2016-12-08T10:24:57.810Z,6604
2016-12-08T10:26:08.787Z,6580
2016-12-08T10:27:19.772Z,6584
2016-12-08T10:28:30.812Z,6620
2016-12-08T10:29:42.001Z,6668
2016-12-08T10:30:52.986Z,6792
2016-12-08T10:32:04.177Z,7280
2016-12-08T10:33:15.164Z,7728
2016-12-08T10:34:26.207Z,8772
2016-12-08T10:35:37.196Z,8692
2016-12-08T10:36:48.189Z,8328
2016-12-08T10:37:59.377Z,9592
2016-12-08T10:39:10.369Z,8676
2016-12-08T10:40:21.402Z,8492
2016-12-08T10:41:32.395Z,8176
2016-12-08T10:42:43.588Z,8452
2016-12-08T10:43:54.777Z,8472
2016-12-08T10:45:05.769Z,7820
2016-12-08T10:46:16.803Z,7652
2016-12-08T10:47:27.990Z,7888
2016-12-08T10:48:38.985Z,7800
2016-12-08T10:49:49.973Z,7644
2016-12-08T10:51:00.967Z,7196
2016-12-08T10:52:11.995Z,8452
2016-12-08T10:53:22.986Z,9484
2016-12-08T10:54:33.974Z,7936
2016-12-08T10:55:45.160Z,7868
2016-12-08T10:56:56.145Z,7696
2016-12-08T10:58:07.385Z,7256
2016-12-08T10:59:18.371Z,6676
2016-12-08T11:00:29.361Z,6132
2016-12-08T11:01:40.362Z,5664
2016-12-08T11:02:51.344Z,5632
2016-12-08T11:04:02.390Z,5408
2016-12-08T11:05:13.583Z,4996
2016-12-08T11:06:24.584Z,4836
2016-12-08T11:07:35.577Z,4764
2016-12-08T11:08:46.574Z,4752
2016-12-08T11:09:57.617Z,4772
2016-12-08T11:11:08.799Z,4808
2016-12-08T11:12:20.192Z,4852
2016-12-08T11:13:31.179Z,4904
2016-12-08T11:14:42.170Z,4936
2016-12-08T11:15:53.418Z,4948
2016-12-08T11:17:04.431Z,4924
2016-12-08T11:18:15.624Z,4892
2016-12-08T11:19:26.620Z,4888
2016-12-08T11:20:37.607Z,4912
2016-12-08T11:21:48.643Z,4996
2016-12-08T11:22:59.629Z,5072
2016-12-08T11:24:10.618Z,5144
2016-12-08T11:25:21.600Z,5180
2016-12-08T11:26:32.593Z,5192
2016-12-08T11:27:43.631Z,5212
2016-12-08T11:28:54.624Z,5204
2016-12-08T11:30:05.606Z,5192
2016-12-08T11:31:16.606Z,5156
2016-12-08T11:32:27.594Z,5088
2016-12-08T11:33:38.854Z,4984
2016-12-08T11:34:49.842Z,4940
2016-12-08T11:36:01.232Z,4956
2016-12-08T11:37:12.223Z,5032
2016-12-08T11:38:23.220Z,5076
2016-12-08T11:39:34.261Z,5020
2016-12-08T11:40:45.250Z,4960
2016-12-08T11:41:56.231Z,4968
2016-12-08T11:43:07.242Z,4992
2016-12-08T11:44:18.247Z,5036
2016-12-08T11:45:29.289Z,5124
2016-12-08T11:46:40.276Z,5140
2016-12-08T11:47:51.466Z,5156
2016-12-08T11:49:02.653Z,5228
2016-12-08T11:50:13.647Z,5344
2016-12-08T11:51:24.697Z,5492
2016-12-08T11:52:35.913Z,5640
2016-12-08T11:53:46.901Z,5756
2016-12-08T11:54:58.087Z,5860
2016-12-08T11:56:09.073Z,5980
2016-12-08T11:57:20.313Z,6096
2016-12-08T11:58:31.495Z,6212
2016-12-08T11:59:42.492Z,6540
2016-12-08T12:00:53.675Z,6420
2016-12-08T12:02:04.667Z,6488
2016-12-08T12:03:15.708Z,6172
2016-12-08T12:04:26.699Z,5952
2016-12-08T12:05:37.924Z,5784
2016-12-08T12:06:48.912Z,5628
2016-12-08T12:07:59.901Z,5528
2016-12-08T12:09:10.934Z,5456
2016-12-08T12:10:21.917Z,5400
2016-12-08T12:11:32.933Z,5380
2016-12-08T12:12:43.918Z,5336
2016-12-08T12:13:54.899Z,5284
2016-12-08T12:15:06.129Z,5248
2016-12-08T12:16:17.123Z,5168
2016-12-08T12:17:28.116Z,5108
2016-12-08T12:18:39.107Z,5032
2016-12-08T12:19:50.298Z,4952
2016-12-08T12:21:01.338Z,4860
2016-12-08T12:22:12.534Z,4844
2016-12-08T12:23:23.523Z,4876
2016-12-08T12:24:34.506Z,4932
2016-12-08T12:25:45.492Z,4248
2016-12-08T12:26:56.534Z,4076
2016-12-08T12:28:07.518Z,3952
2016-12-08T12:29:18.503Z,3848
2016-12-08T12:30:29.506Z,3752
2016-12-08T12:31:40.523Z,3676
2016-12-08T12:32:51.593Z,3608
2016-12-08T12:34:02.579Z,3548
2016-12-08T12:35:13.764Z,3508
2016-12-08T12:36:24.770Z,3480
2016-12-08T12:37:35.768Z,3464
2016-12-08T12:38:46.840Z,3440
2016-12-08T12:39:57.830Z,3404
2016-12-08T12:41:08.821Z,3372
2016-12-08T12:42:19.801Z,3348
2016-12-08T12:43:30.797Z,3324
2016-12-08T12:44:42.043Z,3304
2016-12-08T12:45:53.026Z,3284
2016-12-08T12:47:04.014Z,3264
2016-12-08T12:48:14.999Z,3252
2016-12-08T12:49:25.996Z,3240
2016-12-08T12:50:37.039Z,3224
2016-12-08T12:51:48.034Z,3208
2016-12-08T12:52:59.011Z,3188
2016-12-08T12:54:10.009Z,3172
2016-12-08T12:55:20.997Z,3160
2016-12-08T12:56:32.039Z,3152
2016-12-08T12:57:43.020Z,3152
2016-12-08T12:58:54.006Z,3164
2016-12-08T13:00:04.998Z,3200
2016-12-08T13:01:16.006Z,3224
2016-12-08T13:02:27.048Z,3256
2016-12-08T13:03:38.033Z,3292
2016-12-08T13:04:49.027Z,3316
2016-12-08T13:06:00.038Z,3332
2016-12-08T13:07:11.017Z,3348
2016-12-08T13:08:22.055Z,3376
2016-12-08T13:09:33.039Z,3404
2016-12-08T13:10:44.024Z,3432
2016-12-08T13:11:55.015Z,3456
2016-12-08T13:13:05.993Z,3468
2016-12-08T13:14:17.038Z,3520
2016-12-08T13:15:28.028Z,3592
2016-12-08T13:16:39.222Z,3560
2016-12-08T13:17:50.252Z,3504
2016-12-08T13:19:01.242Z,3416
2016-12-08T13:20:12.481Z,3340
2016-12-08T13:21:23.469Z,3240
2016-12-08T13:22:34.467Z,3172
2016-12-08T13:23:45.456Z,3124
2016-12-08T13:24:56.449Z,3076
2016-12-08T13:26:07.696Z,3052
2016-12-08T13:27:18.684Z,3036
2016-12-08T13:28:29.678Z,3040
2016-12-08T13:29:40.666Z,3044
2016-12-08T13:30:51.665Z,3028
2016-12-08T13:32:02.699Z,3000
2016-12-08T13:33:13.690Z,2964
2016-12-08T13:34:25.075Z,2932
2016-12-08T13:35:36.061Z,2872
2016-12-08T13:36:47.041Z,2816
2016-12-08T13:37:58.273Z,2756
2016-12-08T13:39:09.265Z,2700
2016-12-08T13:40:20.276Z,2656
2016-12-08T13:41:31.271Z,2656
2016-12-08T13:42:42.262Z,2700
2016-12-08T13:43:53.299Z,2792
2016-12-08T13:45:04.292Z,2708
2016-12-08T13:46:15.277Z,2664
2016-12-08T13:47:26.260Z,2648
2016-12-08T13:48:37.458Z,2596
2016-12-08T13:49:48.502Z,2568
2016-12-08T13:50:59.504Z,2540
2016-12-08T13:52:10.496Z,2516
2016-12-08T13:53:21.480Z,2468
2016-12-08T13:54:32.469Z,2404
2016-12-08T13:55:43.503Z,2328
2016-12-08T13:56:54.495Z,2256
2016-12-08T13:58:05.482Z,2184
2016-12-08T13:59:16.484Z,2132
2016-12-08T14:00:27.470Z,2088
2016-12-08T14:01:38.546Z,2040
2016-12-08T14:02:49.545Z,1976
2016-12-08T14:04:00.747Z,1884
2016-12-08T14:05:11.945Z,1792
2016-12-08T14:06:22.968Z,1700
2016-12-08T14:07:34.008Z,1608
2016-12-08T14:08:45.653Z,1512
2016-12-08T14:09:56.635Z,1420
2016-12-08T14:11:07.621Z,1340
2016-12-08T14:12:18.606Z,1264
2016-12-08T14:13:29.647Z,1180
2016-12-08T14:14:40.621Z,1092
2016-12-08T14:15:51.609Z,1004
2016-12-08T14:17:02.592Z,932
2016-12-08T14:18:13.594Z,868
2016-12-08T14:19:24.832Z,824
2016-12-08T14:20:36.013Z,788
2016-12-08T14:21:47.198Z,760
2016-12-08T14:22:58.191Z,728
2016-12-08T14:24:09.175Z,692
2016-12-08T14:25:20.409Z,660
2016-12-08T14:26:31.403Z,628
2016-12-08T14:27:42.398Z,600
2016-12-08T14:28:53.381Z,568
2016-12-08T14:30:04.370Z,548
2016-12-08T14:31:15.601Z,528
2016-12-08T14:32:26.589Z,508
2016-12-08T14:33:37.582Z,484
2016-12-08T14:34:48.576Z,456
2016-12-08T14:35:59.554Z,432
2016-12-08T14:37:10.589Z,412
2016-12-08T14:38:21.571Z,400
2016-12-08T14:39:32.555Z,388
2016-12-08T14:40:43.741Z,384
2016-12-08T14:41:54.736Z,380
2016-12-08T14:43:05.770Z,384
2016-12-08T14:44:16.753Z,400
2016-12-08T14:45:27.738Z,380
2016-12-08T14:46:38.733Z,372
2016-12-08T14:47:49.726Z,376
2016-12-08T14:49:00.763Z,404
2016-12-08T14:50:11.753Z,456
2016-12-08T14:51:22.742Z,492
2016-12-08T14:52:33.750Z,508
2016-12-08T14:53:44.739Z,512
2016-12-08T14:54:55.777Z,492
2016-12-08T14:56:06.757Z,468
2016-12-08T14:57:17.950Z,444
2016-12-08T14:58:28.933Z,424
2016-12-08T14:59:39.917Z,400
2016-12-08T15:00:51.153Z,376
2016-12-08T15:02:02.340Z,356
2016-12-08T15:03:13.535Z,340
2016-12-08T15:04:24.523Z,320
2016-12-08T15:05:35.508Z,304
2016-12-08T15:06:46.747Z,280
2016-12-08T15:07:57.732Z,260
2016-12-08T15:09:08.917Z,236
2016-12-08T15:10:19.902Z,216
2016-12-08T15:11:31.096Z,200
2016-12-08T15:12:42.143Z,188
2016-12-08T15:13:53.339Z,176
2016-12-08T15:15:04.334Z,168
2016-12-08T15:16:15.535Z,156
2016-12-08T15:17:26.521Z,148
2016-12-08T15:18:37.576Z,136
2016-12-08T15:19:48.568Z,124
2016-12-08T15:20:59.565Z,112
2016-12-08T15:22:10.548Z,104
2016-12-08T15:23:21.544Z,92
2016-12-08T15:24:32.591Z,80
2016-12-08T15:25:43.577Z,68
2016-12-08T15:26:54.568Z,56
2016-12-08T15:28:05.549Z,48
2016-12-08T15:29:16.739Z,44
2016-12-08T15:30:27.777Z,36
2016-12-08T15:31:38.769Z,32
2016-12-08T15:32:49.760Z,24
2016-12-08T15:34:00.750Z,24
2016-12-08T15:35:11.747Z,20
2016-12-08T15:36:22.784Z,16
2016-12-08T15:37:33.772Z,12
2016-12-08T15:38:44.757Z,12
2016-12-08T15:39:55.745Z,8
2016-12-08T15:41:06.735Z,4
2016-12-08T15:42:17.773Z,8
2016-12-08T15:43:28.964Z,4
2016-12-08T15:44:39.947Z,4
2016-12-08T15:45:50.942Z,0
2016-12-08T15:47:01.928Z,4
2016-12-08T15:48:12.971Z,0
2016-12-08T15:49:23.989Z,4
2016-12-08T15:50:34.982Z,4
2016-12-08T15:51:45.974Z,0
2016-12-08T15:52:56.956Z,0
2016-12-08T15:54:08.018Z,0
2016-12-08T15:55:19.011Z,0
2016-12-08T15:56:29.991Z,0
2016-12-08T15:57:40.976Z,0
2016-12-08T15:58:51.958Z,0
2016-12-08T16:00:03.200Z,0
2016-12-08T16:01:14.193Z,0
2016-12-08T16:02:25.187Z,0
2016-12-08T16:03:36.175Z,0
2016-12-08T16:04:47.356Z,0
2016-12-08T16:05:58.405Z,0
2016-12-08T16:07:09.591Z,0
2016-12-08T16:08:20.577Z,0
2016-12-08T16:09:31.770Z,0
2016-12-08T16:10:42.758Z,0
2016-12-08T16:11:53.999Z,0
2016-12-08T16:13:05.015Z,0
2016-12-08T16:14:16.001Z,0
2016-12-08T16:15:26.982Z,0
2016-12-08T16:16:37.964Z,0
2016-12-08T16:17:48.997Z,0
2016-12-08T16:19:00.186Z,0
2016-12-08T16:20:11.374Z,0
2016-12-08T16:21:22.357Z,0
2016-12-08T16:22:33.543Z,0
2016-12-08T16:23:44.577Z,0
2016-12-08T16:24:55.560Z,0
2016-12-08T16:26:06.766Z,0
2016-12-08T16:27:17.748Z,0
2016-12-08T16:28:28.940Z,0
2016-12-08T16:29:40.181Z,0
2016-12-08T16:30:51.160Z,0
2016-12-08T16:32:02.348Z,0
2016-12-08T16:33:13.331Z,0
2016-12-08T16:34:24.321Z,0
2016-12-08T16:35:35.374Z,0
2016-12-08T16:36:46.355Z,0